Time;durP1;ratioP1;P1;durP2;ratioP2;P2;SDS_P1;SDS_P2;PMS_P1;PMS_P2;Temp;Humidity;BMP_temperature;BMP_pressure;BME280_temperature;BME280_humidity;BME280_pressure;Samples;Min_cycle;Max_cycle;Signal;HPM_P1;HPM_P2
2022/09/30 00:02:11;;;;;;;;;;;;;;;7.62;100.00;100760.66;5047214;28;20552;-75
2022/09/30 00:04:36;;;;;;;;;;;;;;;7.57;100.00;100754.69;5047685;28;19940;-75
2022/09/30 00:07:01;;;;;;;;;;;;;;;7.51;100.00;100750.47;5042950;28;20004;-74
2022/09/30 00:09:27;;;;;;;;;;;;;;;7.46;100.00;100753.28;5043915;28;19933;-75
2022/09/30 00:11:52;;;;;;;;;;;;;;;7.45;100.00;100748.06;5043266;28;19935;-75
2022/09/30 00:14:19;;;;;;;;;;;;;;;7.43;100.00;100750.75;5046027;28;20383;-75
2022/09/30 00:16:45;;;;;;;;;;;;;;;7.42;100.00;100756.91;5045328;28;20326;-75
2022/09/30 00:19:11;;;;;;;;;;;;;;;7.44;100.00;100751.59;5059556;28;19928;-75
2022/09/30 00:21:36;;;;;;;;;;;;;;;7.43;100.00;100753.41;5045360;28;19929;-74
2022/09/30 00:24:02;;;;;;;;;;;;;;;7.40;100.00;100761.38;5044829;28;20093;-74
2022/09/30 00:26:28;;;;;;;;;;;;;;;7.40;100.00;100756.13;5045383;28;19936;-75
2022/09/30 00:28:54;;;;;;;;;;;;;;;7.40;100.00;100764.00;5047067;27;20385;-75
2022/09/30 00:31:20;;;;;;;;;;;;;;;7.40;100.00;100753.47;5049938;28;20383;-75
2022/09/30 00:36:30;;;;;;;;;;;;;;;7.38;100.00;100759.72;5063436;28;20295;-74
2022/09/30 00:38:55;;;;;;;;;;;;;;;7.35;100.00;100750.13;5048965;28;19960;-75
2022/09/30 00:41:21;;;;;;;;;;;;;;;7.33;100.00;100752.84;5048608;28;19972;-75
2022/09/30 00:43:52;;;;;;;;;;;;;;;7.32;100.00;100750.25;5050129;28;19929;-74
2022/09/30 00:46:17;;;;;;;;;;;;;;;7.31;100.00;100748.53;5048486;28;19970;-75
2022/09/30 00:48:43;;;;;;;;;;;;;;;7.32;100.00;100758.16;5050264;28;19970;-75
2022/09/30 00:51:08;;;;;;;;;;;;;;;7.33;100.00;100765.13;5065089;28;19960;-75
2022/09/30 00:53:54;;;;;;;;;;;;;;;7.30;100.00;100759.97;5062311;28;20087;-74
2022/09/30 00:56:20;;;;;;;;;;;;;;;7.27;100.00;100753.03;5050353;28;19967;-74
2022/09/30 00:58:45;;;;;;;;;;;;;;;7.23;100.00;100754.03;5048376;28;20010;-74
2022/09/30 01:01:11;;;;;;;;;;;;;;;7.21;100.00;100761.13;5049205;28;19931;-74
2022/09/30 01:03:40;;;;;;;;;;;;;;;7.19;100.00;100766.44;5065494;28;19932;-74
2022/09/30 01:06:06;;;;;;;;;;;;;;;7.16;100.00;100766.56;5050016;28;20404;-74
2022/09/30 01:08:32;;;;;;;;;;;;;;;7.15;100.00;100762.19;5065178;28;20011;-74
2022/09/30 01:10:58;;;;;;;;;;;;;;;7.14;100.00;100763.09;5049805;28;19928;-74
2022/09/30 01:13:24;;;;;;;;;;;;;;;7.14;100.00;100757.84;5050562;28;20292;-74
2022/09/30 01:15:50;;;;;;;;;;;;;;;7.12;100.00;100759.66;5049256;28;19974;-75
2022/09/30 01:18:27;;;;;;;;;;;;;;;7.09;100.00;100765.03;5050758;28;19987;-75
2022/09/30 01:20:52;;;;;;;;;;;;;;;7.02;100.00;100763.47;5050897;28;19925;-75
2022/09/30 01:23:32;;;;;;;;;;;;;;;6.98;100.00;100759.25;5065602;28;19931;-75
2022/09/30 01:26:13;;;;;;;;;;;;;;;6.94;100.00;100753.22;5048825;28;19928;-75
2022/09/30 01:28:46;;;;;;;;;;;;;;;6.91;100.00;100764.69;5049828;28;20388;-75
2022/09/30 01:31:30;;;;;;;;;;;;;;;6.88;100.00;100762.19;5049019;28;20009;-74
2022/09/30 01:34:01;;;;;;;;;;;;;;;6.82;100.00;100759.75;5048516;28;20042;-74
2022/09/30 01:36:30;;;;;;;;;;;;;;;6.79;100.00;100765.06;5048581;28;19971;-74
2022/09/30 01:38:58;;;;;;;;;;;;;;;6.75;100.00;100769.56;5047345;28;19929;-74
2022/09/30 01:41:31;;;;;;;;;;;;;;;6.72;100.00;100767.06;5047507;28;19924;-73
2022/09/30 01:43:56;;;;;;;;;;;;;;;6.71;100.00;100764.47;5046874;28;19997;-76
2022/09/30 01:46:21;;;;;;;;;;;;;;;6.67;100.00;100766.31;5045623;28;19934;-74
2022/09/30 01:49:04;;;;;;;;;;;;;;;6.63;100.00;100767.31;5049119;28;19971;-73
2022/09/30 01:51:39;;;;;;;;;;;;;;;6.61;100.00;100779.66;5045975;28;19947;-73
2022/09/30 01:54:07;;;;;;;;;;;;;;;6.57;100.00;100783.28;5055903;28;19928;-74
2022/09/30 01:56:40;;;;;;;;;;;;;;;6.54;100.00;100784.22;5046831;28;19931;-74
2022/09/30 01:59:10;;;;;;;;;;;;;;;6.51;100.00;100773.81;5047782;28;20394;-73
2022/09/30 02:01:38;;;;;;;;;;;;;;;6.47;100.00;100777.41;5064174;28;19929;-74
2022/09/30 02:04:08;;;;;;;;;;;;;;;6.44;100.00;100780.16;5063385;28;20485;-73
2022/09/30 02:06:35;;;;;;;;;;;;;;;6.40;100.00;100784.66;5047035;28;19939;-74
2022/09/30 02:09:06;;;;;;;;;;;;;;;6.37;100.00;100790.84;5047510;28;19954;-73
2022/09/30 02:11:33;;;;;;;;;;;;;;;6.31;100.00;100793.66;5047697;28;19967;-73
2022/09/30 02:14:11;;;;;;;;;;;;;;;6.26;100.00;100790.28;5063613;28;19929;-74
2022/09/30 02:16:38;;;;;;;;;;;;;;;6.24;100.00;100807.88;5045882;28;19929;-74
2022/09/30 02:19:09;;;;;;;;;;;;;;;6.29;100.00;100806.00;5048196;28;20032;-74
2022/09/30 02:21:35;;;;;;;;;;;;;;;6.38;100.00;100800.47;5047195;28;19925;-73
2022/09/30 02:24:06;;;;;;;;;;;;;;;6.42;100.00;100795.13;5045964;28;20451;-74
2022/09/30 02:26:33;;;;;;;;;;;;;;;6.42;100.00;100793.34;5046328;28;20303;-74
2022/09/30 02:29:15;;;;;;;;;;;;;;;6.44;100.00;100791.56;5063102;28;19929;-74
2022/09/30 02:31:40;;;;;;;;;;;;;;;6.46;100.00;100786.22;5048110;28;19963;-74
2022/09/30 02:34:09;;;;;;;;;;;;;;;6.49;100.00;100791.41;5046981;28;20019;-74
2022/09/30 02:36:36;;;;;;;;;;;;;;;6.54;100.00;100802.63;5046887;28;20027;-73
2022/09/30 02:39:06;;;;;;;;;;;;;;;6.57;100.00;100797.31;5047073;28;19939;-73
2022/09/30 02:41:33;;;;;;;;;;;;;;;6.55;100.00;100801.75;5044019;28;19948;-73
2022/09/30 02:43:59;;;;;;;;;;;;;;;6.51;100.00;100805.38;5046672;28;20015;-74
2022/09/30 02:46:38;;;;;;;;;;;;;;;6.50;100.00;100803.66;5047041;28;19929;-73
2022/09/30 02:49:08;;;;;;;;;;;;;;;6.50;100.00;100804.50;5047769;28;20417;-74
2022/09/30 02:51:39;;;;;;;;;;;;;;;6.48;100.00;100805.47;5047020;28;19974;-73
2022/09/30 02:54:07;;;;;;;;;;;;;;;6.45;100.00;100805.53;5047885;28;19932;-74
2022/09/30 02:56:37;;;;;;;;;;;;;;;6.40;100.00;100808.31;5064035;28;21776;-74
2022/09/30 02:59:03;;;;;;;;;;;;;;;6.34;100.00;100804.09;5045070;28;19987;-74
2022/09/30 03:01:28;;;;;;;;;;;;;;;6.30;100.00;100807.72;5061487;28;20379;-73
2022/09/30 03:03:54;;;;;;;;;;;;;;;6.25;100.00;100813.09;5049492;28;19946;-74
2022/09/30 03:06:20;;;;;;;;;;;;;;;6.21;100.00;100810.59;5063018;28;19924;-74
2022/09/30 03:08:45;;;;;;;;;;;;;;;6.16;100.00;100804.59;5046116;28;19932;-73
2022/09/30 03:11:13;;;;;;;;;;;;;;;6.13;100.00;100804.69;5047794;28;19931;-74
2022/09/30 03:13:41;;;;;;;;;;;;;;;6.08;100.00;100816.19;5046066;28;19925;-74
2022/09/30 03:16:26;;;;;;;;;;;;;;;6.04;100.00;100817.16;5061146;28;19932;-73
2022/09/30 03:19:08;;;;;;;;;;;;;;;6.02;100.00;100819.00;5044094;28;19931;-73
2022/09/30 03:21:46;;;;;;;;;;;;;;;5.97;100.00;100815.56;5044389;28;19929;-73
2022/09/30 03:24:14;;;;;;;;;;;;;;;5.94;100.00;100816.53;5043989;28;20303;-73
2022/09/30 03:26:52;;;;;;;;;;;;;;;5.91;100.00;100811.34;5047683;28;19949;-74
2022/09/30 03:29:36;;;;;;;;;;;;;;;5.88;100.00;100806.16;5046316;28;19931;-74
2022/09/30 03:32:17;;;;;;;;;;;;;;;5.85;100.00;100807.09;5062305;28;19925;-74
2022/09/30 03:34:46;;;;;;;;;;;;;;;5.84;100.00;100796.66;5044347;28;19932;-73
2022/09/30 03:37:29;;;;;;;;;;;;;;;5.84;100.00;100802.75;5047490;28;19983;-73
2022/09/30 03:40:16;;;;;;;;;;;;;;;5.84;100.00;100809.81;5045270;28;19935;-73
2022/09/30 03:42:59;;;;;;;;;;;;;;;5.82;100.00;100811.59;5061755;28;20338;-72
2022/09/30 03:45:30;;;;;;;;;;;;;;;5.79;100.00;100815.19;5046964;28;20361;-73
2022/09/30 03:47:56;;;;;;;;;;;;;;;5.78;100.00;100815.22;5046278;28;19925;-73
2022/09/30 03:50:22;;;;;;;;;;;;;;;5.78;100.00;100818.69;5045951;28;19929;-74
2022/09/30 03:52:48;;;;;;;;;;;;;;;5.80;100.00;100818.66;5046510;28;20054;-74
2022/09/30 03:55:14;;;;;;;;;;;;;;;5.82;100.00;100822.97;5045514;28;21847;-74
2022/09/30 03:57:40;;;;;;;;;;;;;;;5.82;100.00;100812.47;5044762;28;19981;-73
2022/09/30 04:00:06;;;;;;;;;;;;;;;5.82;100.00;100807.19;5045265;28;19929;-72
2022/09/30 04:02:31;;;;;;;;;;;;;;;5.81;100.00;100810.75;5043992;28;19956;-73
2022/09/30 04:04:58;;;;;;;;;;;;;;;5.81;100.00;100812.50;5045120;28;20019;-73
2022/09/30 04:07:23;;;;;;;;;;;;;;;5.82;100.00;100816.84;5046304;28;19935;-73
2022/09/30 04:09:48;;;;;;;;;;;;;;;5.83;100.00;100808.94;5028911;28;21524;-73
2022/09/30 04:12:14;;;;;;;;;;;;;;;5.88;100.00;100818.47;5046640;28;20307;-73
2022/09/30 04:14:39;;;;;;;;;;;;;;;5.91;100.00;100818.38;5044845;28;20407;-73
2022/09/30 04:17:05;;;;;;;;;;;;;;;5.93;100.00;100819.19;5047059;28;19928;-72
2022/09/30 04:19:30;;;;;;;;;;;;;;;5.94;100.00;100818.31;5044478;28;19928;-73
2022/09/30 04:21:55;;;;;;;;;;;;;;;5.93;100.00;100820.06;5045340;28;20381;-73
2022/09/30 04:24:22;;;;;;;;;;;;;;;5.92;100.00;100820.97;5046073;28;20383;-73
2022/09/30 04:26:47;;;;;;;;;;;;;;;5.91;100.00;100818.38;5046937;28;20781;-73
2022/09/30 04:29:12;;;;;;;;;;;;;;;5.90;100.00;100822.78;5044913;28;19980;-73
2022/09/30 04:31:38;;;;;;;;;;;;;;;5.91;100.00;100821.00;5047276;28;19933;-73
2022/09/30 04:34:03;;;;;;;;;;;;;;;5.91;100.00;100823.63;5044088;28;20580;-73
2022/09/30 04:36:29;;;;;;;;;;;;;;;5.91;100.00;100821.00;5047098;28;20032;-73
2022/09/30 04:38:54;;;;;;;;;;;;;;;5.89;100.00;100817.56;5043555;28;19958;-73
2022/09/30 04:41:19;;;;;;;;;;;;;;;5.87;100.00;100820.22;5051598;28;19928;-73
2022/09/30 04:43:45;;;;;;;;;;;;;;;5.87;100.00;100822.00;5045934;28;20019;-73
2022/09/30 04:46:11;;;;;;;;;;;;;;;5.87;100.00;100822.00;5075605;28;19936;-73
2022/09/30 04:48:37;;;;;;;;;;;;;;;5.86;100.00;100831.63;5044099;28;19935;-73
2022/09/30 04:51:02;;;;;;;;;;;;;;;5.85;100.00;100828.13;5043160;28;19925;-73
2022/09/30 04:53:28;;;;;;;;;;;;;;;5.83;100.00;100839.59;5045625;28;20379;-73
2022/09/30 04:55:57;;;;;;;;;;;;;;;5.81;100.00;100852.78;5046678;28;19932;-73
2022/09/30 04:58:23;;;;;;;;;;;;;;;5.81;100.00;100852.78;5046017;28;20012;-72
2022/09/30 05:00:48;;;;;;;;;;;;;;;5.82;100.00;100854.50;5046845;28;19983;-73
2022/09/30 05:03:14;;;;;;;;;;;;;;;5.81;100.00;100860.66;5045465;28;20027;-73
2022/09/30 05:05:42;;;;;;;;;;;;;;;5.80;100.00;100866.81;5046454;28;19932;-73
2022/09/30 05:08:08;;;;;;;;;;;;;;;5.76;100.00;100865.16;5043248;28;20402;-73
2022/09/30 05:10:33;;;;;;;;;;;;;;;5.73;100.00;100865.25;5047042;28;20066;-73
2022/09/30 05:12:58;;;;;;;;;;;;;;;5.71;100.00;100867.03;5047085;28;19963;-74
2022/09/30 05:15:24;;;;;;;;;;;;;;;5.68;100.00;100872.38;5048086;28;19925;-74
2022/09/30 05:17:50;;;;;;;;;;;;;;;5.66;100.00;100866.31;5049155;28;19921;-74
2022/09/30 05:20:15;;;;;;;;;;;;;;;5.66;100.00;100861.06;5050554;28;20410;-73
2022/09/30 05:22:41;;;;;;;;;;;;;;;5.67;100.00;100868.88;5050332;28;19975;-73
2022/09/30 05:25:06;;;;;;;;;;;;;;;5.67;100.00;100870.66;5049964;28;19936;-74
2022/09/30 05:27:35;;;;;;;;;;;;;;;5.63;100.00;100863.75;5082492;28;20066;-74
2022/09/30 05:30:00;;;;;;;;;;;;;;;5.60;100.00;100858.56;5049851;28;19935;-74
2022/09/30 05:32:25;;;;;;;;;;;;;;;5.57;100.00;100868.22;5050294;28;20407;-73
2022/09/30 05:34:51;;;;;;;;;;;;;;;5.53;100.00;100879.72;5051152;28;20575;-73
2022/09/30 05:37:16;;;;;;;;;;;;;;;5.50;100.00;100873.69;5049170;28;19936;-73
2022/09/30 05:39:42;;;;;;;;;;;;;;;5.45;100.00;100871.13;5041531;28;20394;-73
2022/09/30 05:42:07;;;;;;;;;;;;;;;5.44;100.00;100872.94;5049082;28;20394;-73
2022/09/30 05:44:33;;;;;;;;;;;;;;;5.44;100.00;100883.44;5050980;28;19924;-73
2022/09/30 05:46:58;;;;;;;;;;;;;;;5.46;100.00;100883.41;5050073;28;19924;-73
2022/09/30 05:49:24;;;;;;;;;;;;;;;5.47;100.00;100885.13;5047879;28;19928;-73
2022/09/30 05:51:50;;;;;;;;;;;;;;;5.48;100.00;100889.47;5047958;28;21324;-73
2022/09/30 05:54:15;;;;;;;;;;;;;;;5.51;100.00;100891.16;5049811;28;19933;-73
2022/09/30 05:56:40;;;;;;;;;;;;;;;5.54;100.00;100886.69;5048869;28;20380;-73
2022/09/30 05:59:06;;;;;;;;;;;;;;;5.57;100.00;100883.16;5049985;28;20330;-73
2022/09/30 06:01:31;;;;;;;;;;;;;;;5.58;100.00;100877.84;5049116;28;20030;-73
2022/09/30 06:03:57;;;;;;;;;;;;;;;5.61;100.00;100876.91;5045995;28;19929;-73
2022/09/30 06:06:22;;;;;;;;;;;;;;;5.62;100.00;100875.16;5047913;28;21697;-73
2022/09/30 06:08:47;;;;;;;;;;;;;;;5.64;100.00;100883.84;5049682;28;21414;-72
2022/09/30 06:11:14;;;;;;;;;;;;;;;5.66;100.00;100877.66;5049773;28;19964;-73
2022/09/30 06:13:39;;;;;;;;;;;;;;;5.70;100.00;100879.31;5039488;28;19968;-73
2022/09/30 06:16:05;;;;;;;;;;;;;;;5.75;100.00;100884.47;5047280;28;20567;-73
2022/09/30 06:18:30;;;;;;;;;;;;;;;5.78;100.00;100879.13;5048986;28;19934;-73
2022/09/30 06:21:00;;;;;;;;;;;;;;;5.85;100.00;100879.84;5045309;28;19928;-72
2022/09/30 06:23:26;;;;;;;;;;;;;;;5.90;100.00;100871.84;5048273;28;19924;-74
2022/09/30 06:25:51;;;;;;;;;;;;;;;5.96;100.00;100879.56;5047315;28;19936;-73
2022/09/30 06:28:17;;;;;;;;;;;;;;;6.00;100.00;100881.22;5048711;28;20023;-74
2022/09/30 06:30:42;;;;;;;;;;;;;;;6.05;100.00;100884.59;5048393;28;20063;-74
2022/09/30 06:33:08;;;;;;;;;;;;;;;6.11;100.00;100879.19;5049573;28;19929;-74
2022/09/30 06:35:33;;;;;;;;;;;;;;;6.19;100.00;100888.63;5047602;28;19932;-73
2022/09/30 06:37:58;;;;;;;;;;;;;;;6.23;100.00;100885.88;5047989;28;20571;-74
2022/09/30 06:40:24;;;;;;;;;;;;;;;6.29;100.00;100891.88;5046337;28;19971;-73
2022/09/30 06:42:50;;;;;;;;;;;;;;;6.35;100.00;100900.50;5047441;28;19929;-73
2022/09/30 06:45:17;;;;;;;;;;;;;;;6.47;100.00;100896.66;5047467;28;19949;-73
2022/09/30 06:47:43;;;;;;;;;;;;;;;6.54;100.00;100893.84;5046404;28;19928;-73
2022/09/30 06:50:09;;;;;;;;;;;;;;;6.59;100.00;100892.81;5048167;28;19928;-73
2022/09/30 06:52:34;;;;;;;;;;;;;;;6.65;100.00;100890.03;5047392;28;19929;-73
2022/09/30 06:55:00;;;;;;;;;;;;;;;6.71;100.00;100896.00;5046965;28;20701;-73
2022/09/30 06:57:26;;;;;;;;;;;;;;;6.76;100.00;100899.38;5045088;28;19939;-74
2022/09/30 06:59:52;;;;;;;;;;;;;;;6.81;100.00;100897.47;5044730;28;20299;-73
2022/09/30 07:02:18;;;;;;;;;;;;;;;6.92;100.00;100902.44;5045780;28;19928;-74
2022/09/30 07:04:43;;;;;;;;;;;;;;;7.00;100.00;100889.03;5047700;28;19936;-73
2022/09/30 07:07:09;;;;;;;;;;;;;;;7.07;100.00;100893.22;5049632;28;19928;-73
2022/09/30 07:09:34;;;;;;;;;;;;;;;7.14;100.00;100894.75;5047430;28;20364;-73
2022/09/30 07:12:00;;;;;;;;;;;;;;;7.24;100.00;100900.59;5049059;28;19929;-73
2022/09/30 07:14:25;;;;;;;;;;;;;;;7.34;100.00;100902.06;5046354;28;19928;-74
2022/09/30 07:16:54;;;;;;;;;;;;;;;7.41;100.00;100902.72;5044555;28;19928;-75
2022/09/30 07:19:21;;;;;;;;;;;;;;;7.47;100.00;100907.78;5028924;28;19975;-75
2022/09/30 07:21:49;;;;;;;;;;;;;;;7.56;100.00;100890.84;5047915;28;19936;-75
2022/09/30 07:24:15;;;;;;;;;;;;;;;7.61;100.00;100893.31;5046740;28;19937;-75
2022/09/30 07:26:43;;;;;;;;;;;;;;;7.64;100.00;100887.09;5043553;28;20014;-74
2022/09/30 07:29:09;;;;;;;;;;;;;;;7.68;100.00;100894.84;5061633;28;20333;-74
2022/09/30 07:31:35;;;;;;;;;;;;;;;7.73;100.00;100886.78;5046631;28;19936;-74
2022/09/30 07:34:00;;;;;;;;;;;;;;;7.79;100.00;100891.84;5043812;28;19978;-74
2022/09/30 07:36:28;;;;;;;;;;;;;;;7.87;100.00;100891.59;5046238;28;19932;-73
2022/09/30 07:38:54;;;;;;;;;;;;;;;7.93;100.00;100885.25;5028536;28;19982;-73
2022/09/30 07:41:21;;;;;;;;;;;;;;;7.99;100.00;100877.13;5015510;28;19978;-73
2022/09/30 07:43:47;;;;;;;;;;;;;;;8.05;100.00;100881.38;5047694;28;19925;-73
2022/09/30 07:46:19;;;;;;;;;;;;;;;8.13;100.00;100884.59;5047280;28;19969;-74
2022/09/30 07:48:47;;;;;;;;;;;;;;;8.22;100.00;100878.97;5062784;28;20402;-74
2022/09/30 07:51:23;;;;;;;;;;;;;;;8.30;100.00;100881.38;5045367;28;19966;-73
2022/09/30 07:53:50;;;;;;;;;;;;;;;8.41;100.00;100886.25;5047734;28;19960;-74
2022/09/30 07:56:16;;;;;;;;;;;;;;;8.50;100.00;100880.63;5047265;28;20210;-74
2022/09/30 07:58:41;;;;;;;;;;;;;;;8.56;100.00;100876.97;5045179;28;19928;-73
2022/09/30 08:01:07;;;;;;;;;;;;;;;8.62;100.00;100879.38;5046552;28;19935;-73
2022/09/30 08:03:33;;;;;;;;;;;;;;;8.69;100.00;100872.97;5053205;28;20079;-73
2022/09/30 08:06:03;;;;;;;;;;;;;;;8.78;100.00;100871.72;5046538;28;20015;-74
2022/09/30 08:08:28;;;;;;;;;;;;;;;8.90;100.00;100872.19;5044192;28;19936;-74
2022/09/30 08:10:57;;;;;;;;;;;;;;;9.03;100.00;100880.50;5046217;28;20299;-74
2022/09/30 08:13:22;;;;;;;;;;;;;;;9.14;100.00;100883.59;5047070;28;19920;-74
2022/09/30 08:15:47;;;;;;;;;;;;;;;9.26;100.00;100881.41;5045416;28;19935;-74
2022/09/30 08:18:13;;;;;;;;;;;;;;;9.34;100.00;100877.53;4909401;28;3684022;-73
2022/09/30 08:20:38;;;;;;;;;;;;;;;9.46;100.00;100870.03;5041899;28;19929;-72
2022/09/30 08:23:03;;;;;;;;;;;;;;;9.56;100.00;100871.38;5046293;28;20358;-74
2022/09/30 08:25:29;;;;;;;;;;;;;;;9.64;100.00;100876.34;5047714;28;20323;-73
2022/09/30 08:27:54;;;;;;;;;;;;;;;9.73;100.00;100880.41;5048819;28;19983;-74
2022/09/30 08:30:20;;;;;;;;;;;;;;;9.80;100.00;100879.22;5048717;28;19971;-73
2022/09/30 08:32:45;;;;;;;;;;;;;;;9.90;100.00;100880.56;5046618;28;20468;-73
2022/09/30 08:35:10;;;;;;;;;;;;;;;9.97;100.00;100882.97;5047928;28;19932;-75
2022/09/30 08:37:36;;;;;;;;;;;;;;;10.01;100.00;100874.81;5048339;28;20272;-75
2022/09/30 08:40:01;;;;;;;;;;;;;;;10.08;100.00;100878.06;5047803;28;19989;-75
2022/09/30 08:42:50;;;;;;;;;;;;;;;10.12;100.00;100887.59;5046101;28;19952;-75
2022/09/30 08:45:27;;;;;;;;;;;;;;;10.18;100.00;100883.81;5034029;28;19929;-76
2022/09/30 08:48:00;;;;;;;;;;;;;;;10.26;100.00;100871.13;5046782;28;19932;-77
2022/09/30 08:50:33;;;;;;;;;;;;;;;10.38;100.00;100882.94;5048740;28;20528;-76
2022/09/30 08:53:01;;;;;;;;;;;;;;;10.48;100.00;100887.88;5049646;28;19966;-74
2022/09/30 08:55:28;;;;;;;;;;;;;;;10.54;100.00;100883.16;5084910;28;20011;-75
2022/09/30 08:57:54;;;;;;;;;;;;;;;10.62;100.00;100885.44;5034496;28;20019;-75
2022/09/30 09:00:20;;;;;;;;;;;;;;;10.71;100.00;100892.13;5048643;28;19946;-75
2022/09/30 09:02:50;;;;;;;;;;;;;;;10.80;100.00;100896.16;5048924;28;19924;-75
2022/09/30 09:05:17;;;;;;;;;;;;;;;10.89;100.00;100898.38;5049122;28;19928;-75
2022/09/30 09:07:48;;;;;;;;;;;;;;;10.94;100.00;100899.03;5049323;28;20393;-75
2022/09/30 09:10:20;;;;;;;;;;;;;;;11.03;100.00;100900.41;5048795;28;19933;-74
2022/09/30 09:12:58;;;;;;;;;;;;;;;11.13;100.00;100890.22;5049314;28;19928;-76
2022/09/30 09:15:26;;;;;;;;;;;;;;;11.28;100.00;100894.78;5048151;28;19924;-75
2022/09/30 09:18:04;;;;;;;;;;;;;;;11.42;100.00;100890.63;5055223;28;20284;-75
2022/09/30 09:20:31;;;;;;;;;;;;;;;11.49;100.00;100888.56;5049663;28;19966;-74
2022/09/30 09:22:56;;;;;;;;;;;;;;;11.53;100.00;100885.66;5044235;28;19925;-76
2022/09/30 09:25:26;;;;;;;;;;;;;;;11.55;100.00;100886.44;5048415;28;19932;-75
2022/09/30 09:27:58;;;;;;;;;;;;;;;11.57;100.00;100881.06;5049124;28;19932;-76
2022/09/30 09:30:28;;;;;;;;;;;;;;;11.58;100.00;100884.56;5048499;28;20023;-75
2022/09/30 09:32:55;;;;;;;;;;;;;;;11.60;100.00;100880.06;5031523;28;19928;-76
2022/09/30 09:35:27;;;;;;;;;;;;;;;11.62;100.00;100880.84;5065065;28;19948;-75
2022/09/30 09:40:56;;;;;;;;;;;;;;;11.75;100.00;100871.34;5049668;28;20459;-75
2022/09/30 09:43:42;;;;;;;;;;;;;;;11.85;100.00;100866.44;5048614;28;20299;-75
2022/09/30 09:46:20;;;;;;;;;;;;;;;11.91;100.00;100873.22;5048598;28;19977;-74
2022/09/30 09:48:45;;;;;;;;;;;;;;;11.96;100.00;100873.84;5049595;28;19929;-75
2022/09/30 09:51:31;;;;;;;;;;;;;;;12.03;100.00;100863.75;5047832;28;19928;-74
2022/09/30 09:53:57;;;;;;;;;;;;;;;12.11;100.00;100871.38;5047195;28;20517;-74
2022/09/30 09:56:25;;;;;;;;;;;;;;;12.16;100.00;100864.88;5047934;28;20315;-75
2022/09/30 09:59:04;;;;;;;;;;;;;;;12.21;100.00;100872.63;5039807;28;20058;-74
2022/09/30 10:01:33;;;;;;;;;;;;;;;12.25;100.00;100858.25;5048709;28;20675;-74
2022/09/30 10:04:09;;;;;;;;;;;;;;;12.27;100.00;100852.84;5047910;28;20367;-74
2022/09/30 10:06:42;;;;;;;;;;;;;;;12.33;100.00;100857.84;5049616;28;19928;-74
2022/09/30 10:09:08;;;;;;;;;;;;;;;12.36;100.00;100850.59;5048254;28;19929;-74
2022/09/30 10:11:33;;;;;;;;;;;;;;;12.42;100.00;100848.53;5046349;28;20606;-74
2022/09/30 10:13:59;;;;;;;;;;;;;;;12.45;100.00;100851.03;5048915;28;19929;-74
2022/09/30 10:16:30;;;;;;;;;;;;;;;12.45;100.00;100841.28;5048547;28;20006;-74
2022/09/30 10:18:55;;;;;;;;;;;;;;;12.48;100.00;100846.41;5049609;28;19924;-74
2022/09/30 10:21:22;;;;;;;;;;;;;;;12.48;100.00;100848.22;5047181;28;19931;-74
2022/09/30 10:23:47;;;;;;;;;;;;;;;12.55;100.00;100843.44;5049227;28;20000;-74
2022/09/30 10:26:12;;;;;;;;;;;;;;;12.59;100.00;100845.81;5048013;28;20582;-74
2022/09/30 10:28:47;;;;;;;;;;;;;;;12.61;100.00;100841.31;5049121;28;19932;-74
2022/09/30 10:31:16;;;;;;;;;;;;;;;12.65;100.00;100849.09;5048666;28;20324;-74
2022/09/30 10:33:43;;;;;;;;;;;;;;;12.69;100.00;100848.00;5048811;28;19971;-74
2022/09/30 10:36:19;;;;;;;;;;;;;;;12.72;100.00;100850.47;5048858;28;19978;-74
2022/09/30 10:38:51;;;;;;;;;;;;;;;12.75;100.00;100855.63;5047330;28;19933;-74
2022/09/30 10:41:20;;;;;;;;;;;;;;;12.73;100.00;100854.84;5046891;28;19936;-74
2022/09/30 10:43:49;;;;;;;;;;;;;;;12.73;100.00;100854.84;5047311;28;20089;-74
2022/09/30 10:46:25;;;;;;;;;;;;;;;12.76;100.00;100852.03;5047150;28;20022;-73
2022/09/30 10:48:52;;;;;;;;;;;;;;;12.82;100.00;100854.38;5047212;28;20289;-74
2022/09/30 10:51:22;;;;;;;;;;;;;;;12.84;100.00;100857.78;5047287;28;20463;-74
2022/09/30 10:53:48;;;;;;;;;;;;;;;12.90;100.00;100848.59;5047845;28;19929;-74
2022/09/30 10:56:13;;;;;;;;;;;;;;;13.01;100.00;100853.31;5045633;28;19924;-74
2022/09/30 10:58:39;;;;;;;;;;;;;;;13.09;100.00;100843.16;5046792;28;20337;-74
2022/09/30 11:01:16;;;;;;;;;;;;;;;13.16;100.00;100841.84;5047713;28;19924;-74
2022/09/30 11:03:48;;;;;;;;;;;;;;;13.22;100.00;100842.44;5060535;28;19929;-75
2022/09/30 11:06:14;;;;;;;;;;;;;;;13.22;100.00;100843.31;5046314;28;19986;-76
2022/09/30 11:08:44;;;;;;;;;;;;;;;13.27;100.00;100837.72;5047889;28;20019;-75
2022/09/30 11:11:28;;;;;;;;;;;;;;;13.30;100.00;100848.19;5046308;28;20078;-75
2022/09/30 11:14:14;;;;;;;;;;;;;;;13.28;100.00;100844.75;5037196;28;20011;-75
2022/09/30 11:16:46;;;;;;;;;;;;;;;13.35;100.00;100838.13;5054132;28;19928;-74
2022/09/30 11:19:17;;;;;;;;;;;;;;;13.36;100.00;100839.88;5045904;28;19929;-74
2022/09/30 11:21:43;;;;;;;;;;;;;;;13.39;100.00;100837.03;5048117;28;20406;-74
2022/09/30 11:24:28;;;;;;;;;;;;;;;13.39;100.00;100842.34;5047603;28;19929;-74
2022/09/30 11:27:13;;;;;;;;;;;;;;;13.44;100.00;100836.75;5057398;28;19947;-74
2022/09/30 11:29:50;;;;;;;;;;;;;;;13.51;100.00;100830.16;5046082;28;20067;-74
2022/09/30 11:32:22;;;;;;;;;;;;;;;13.54;100.00;100837.09;5035719;28;20019;-74
2022/09/30 11:34:53;;;;;;;;;;;;;;;13.54;100.00;100832.66;5044089;28;19928;-74
2022/09/30 11:37:37;;;;;;;;;;;;;;;13.56;100.00;100824.56;5044684;28;19940;-74
2022/09/30 11:40:14;;;;;;;;;;;;;;;13.58;100.00;100823.53;5045353;28;20948;-74
2022/09/30 11:42:43;;;;;;;;;;;;;;;13.62;100.00;100818.88;5044090;28;20027;-74
2022/09/30 11:45:15;;;;;;;;;;;;;;;13.64;100.00;100822.34;5041256;28;20676;-74
2022/09/30 11:47:43;;;;;;;;;;;;;;;13.65;100.00;100818.72;5043188;28;19992;-74
2022/09/30 11:50:12;;;;;;;;;;;;;;;13.64;100.00;100822.34;5044940;28;19928;-75
2022/09/30 11:52:47;;;;;;;;;;;;;;;13.65;100.00;100818.72;5045972;28;20465;-73
2022/09/30 11:55:24;;;;;;;;;;;;;;;13.65;100.00;100824.03;5043221;28;19929;-74
2022/09/30 11:57:59;;;;;;;;;;;;;;;13.67;100.00;100805.34;5046174;28;19929;-74
2022/09/30 12:00:25;;;;;;;;;;;;;;;13.69;100.00;100814.91;5025786;28;20343;-75
2022/09/30 12:02:52;;;;;;;;;;;;;;;13.69;100.00;100804.28;5041412;28;20027;-75
2022/09/30 12:05:23;;;;;;;;;;;;;;;13.73;100.00;100801.44;5044017;28;19955;-75
2022/09/30 12:07:56;;;;;;;;;;;;;;;13.82;100.00;100804.41;5046321;28;19932;-76
2022/09/30 12:10:23;;;;;;;;;;;;;;;13.83;100.00;100795.47;5045744;28;20308;-77
2022/09/30 12:12:50;;;;;;;;;;;;;;;13.85;100.00;100792.75;5062626;28;20073;-76
2022/09/30 12:15:17;;;;;;;;;;;;;;;13.86;100.00;100789.13;5044084;28;20005;-75
2022/09/30 12:17:46;;;;;;;;;;;;;;;13.90;100.00;100780.00;5042287;28;19924;-75
2022/09/30 12:20:27;;;;;;;;;;;;;;;13.95;100.00;100785.91;5067772;28;20014;-74
2022/09/30 12:23:09;;;;;;;;;;;;;;;13.99;100.00;100783.91;5045407;28;19928;-72
2022/09/30 12:25:43;;;;;;;;;;;;;;;13.99;100.00;100778.59;5044388;28;20003;-72
2022/09/30 12:31:28;;;;;;;;;;;;;;;14.07;100.00;100784.31;5042950;28;19929;-72
2022/09/30 12:33:53;;;;;;;;;;;;;;;14.19;100.00;100769.38;5045725;28;19933;-73
2022/09/30 12:36:26;;;;;;;;;;;;;;;14.22;100.00;100763.84;5046366;28;19979;-72
2022/09/30 12:39:10;;;;;;;;;;;;;;;14.22;100.00;100763.84;5046760;28;19936;-72
2022/09/30 12:41:56;;;;;;;;;;;;;;;14.29;100.00;100777.66;5048210;28;19933;-73
2022/09/30 12:44:39;;;;;;;;;;;;;;;14.32;100.00;100765.97;5039318;28;19940;-73
2022/09/30 12:47:05;;;;;;;;;;;;;;;14.33;100.00;100767.66;5046696;28;19955;-73
2022/09/30 12:49:30;;;;;;;;;;;;;;;14.32;100.00;100768.63;5045714;28;20054;-72
2022/09/30 12:51:56;;;;;;;;;;;;;;;14.32;100.00;100765.97;5044710;28;19928;-73